createdAt,value
2023-03-07T00:00:08.191Z,11.77
2023-03-07T00:02:35.123Z,9.57
2023-03-07T00:05:01.808Z,10.33
2023-03-07T00:07:28.530Z,11.47
2023-03-07T00:09:55.126Z,10.97
2023-03-07T00:12:22.314Z,14.13
2023-03-07T00:14:48.999Z,11.53
2023-03-07T00:17:15.638Z,12.77
2023-03-07T00:19:43.596Z,12.93
2023-03-07T00:22:14.201Z,10.93
2023-03-07T00:24:41.412Z,13.87
2023-03-07T00:27:08.822Z,10.53
2023-03-07T00:29:35.453Z,10.87
2023-03-07T00:32:02.354Z,11.50
2023-03-07T00:34:29.082Z,10.97
2023-03-07T00:36:55.817Z,10.53
2023-03-07T00:39:22.646Z,10.27
2023-03-07T00:41:49.427Z,10.33
2023-03-07T00:44:16.156Z,10.57
2023-03-07T00:46:42.815Z,10.27
2023-03-07T00:49:09.821Z,10.13
2023-03-07T00:51:36.418Z,10.30
2023-03-07T00:54:03.926Z,10.07
2023-03-07T00:56:30.977Z,9.70
2023-03-07T00:58:57.715Z,11.27
2023-03-07T01:01:25.604Z,9.73
2023-03-07T01:03:53.863Z,10.50
2023-03-07T01:06:23.810Z,10.37
2023-03-07T01:08:51.631Z,9.90
2023-03-07T01:11:18.507Z,10.63
2023-03-07T01:13:45.765Z,10.10
2023-03-07T01:16:16.915Z,10.63
2023-03-07T01:18:45.079Z,10.00
2023-03-07T01:21:21.723Z,10.77
2023-03-07T01:23:49.674Z,10.47
2023-03-07T01:26:22.354Z,9.50
2023-03-07T01:28:51.449Z,10.60
2023-03-07T01:31:18.214Z,9.97
2023-03-07T01:33:47.142Z,10.27
2023-03-07T01:36:30.247Z,9.83
2023-03-07T01:39:10.317Z,9.80
2023-03-07T01:41:40.101Z,10.53
2023-03-07T01:44:19.569Z,9.97
2023-03-07T01:46:54.399Z,11.17
2023-03-07T01:49:31.459Z,9.07
2023-03-07T01:52:11.231Z,10.40
2023-03-07T01:54:48.915Z,10.63
2023-03-07T01:57:24.841Z,11.00
2023-03-07T01:59:56.035Z,10.73
2023-03-07T02:02:24.463Z,10.50
2023-03-07T02:05:07.061Z,12.50
2023-03-07T02:07:41.135Z,11.00
2023-03-07T02:10:10.559Z,10.60
2023-03-07T02:12:38.382Z,11.00
2023-03-07T02:15:05.637Z,9.70
2023-03-07T02:17:32.408Z,9.60
2023-03-07T02:20:02.648Z,8.77
2023-03-07T02:22:30.690Z,10.50
2023-03-07T02:25:02.612Z,9.63
2023-03-07T02:27:35.087Z,10.53
2023-03-07T02:30:04.068Z,9.30
2023-03-07T02:32:31.484Z,9.77
2023-03-07T02:34:58.265Z,10.23
2023-03-07T02:37:38.419Z,9.80
2023-03-07T02:40:11.692Z,9.73
2023-03-07T02:42:42.230Z,8.67
2023-03-07T02:45:15.521Z,9.70
2023-03-07T02:47:44.168Z,8.77
2023-03-07T02:50:14.525Z,8.50
2023-03-07T02:52:43.857Z,9.43
2023-03-07T02:55:11.107Z,9.33
2023-03-07T02:57:42.194Z,7.93
2023-03-07T03:00:11.916Z,8.23
2023-03-07T03:02:38.778Z,9.73
2023-03-07T03:05:06.030Z,8.87
2023-03-07T03:07:32.607Z,7.97
2023-03-07T03:10:02.148Z,9.70
2023-03-07T03:12:31.242Z,9.27
2023-03-07T03:14:58.660Z,9.40
2023-03-07T03:17:25.365Z,8.00
2023-03-07T03:19:52.048Z,9.23
2023-03-07T03:22:18.765Z,9.47
2023-03-07T03:24:47.605Z,9.37
2023-03-07T03:27:16.846Z,10.03
2023-03-07T03:29:45.251Z,9.23
2023-03-07T03:32:12.433Z,9.60
2023-03-07T03:34:42.075Z,8.90
2023-03-07T03:37:08.756Z,9.37
2023-03-07T03:39:35.619Z,8.73
2023-03-07T03:42:02.523Z,9.57
2023-03-07T03:44:29.796Z,9.40
2023-03-07T03:46:57.538Z,9.87
2023-03-07T03:49:24.697Z,10.63
2023-03-07T03:51:53.882Z,9.70
2023-03-07T03:54:20.746Z,10.20
2023-03-07T03:56:47.363Z,9.23
2023-03-07T03:59:14.164Z,10.23
2023-03-07T04:01:41.397Z,9.87
2023-03-07T04:04:08.422Z,9.83
2023-03-07T04:06:35.380Z,8.37
2023-03-07T04:09:04.707Z,9.30
2023-03-07T04:11:32.470Z,9.43
2023-03-07T04:13:59.550Z,9.60
2023-03-07T04:16:26.491Z,9.13
2023-03-07T04:18:54.058Z,9.90
2023-03-07T04:21:22.360Z,10.13
2023-03-07T04:23:55.257Z,9.70
2023-03-07T04:26:23.748Z,9.87
2023-03-07T04:28:50.405Z,9.47
2023-03-07T04:31:28.722Z,8.87
2023-03-07T04:33:58.293Z,8.87
2023-03-07T04:36:25.254Z,9.80
2023-03-07T04:38:52.766Z,10.53
2023-03-07T04:41:23.056Z,9.37
2023-03-07T04:43:53.803Z,10.13
2023-03-07T04:46:22.874Z,11.27
2023-03-07T04:48:50.477Z,8.83
2023-03-07T04:51:18.112Z,9.27
2023-03-07T04:53:45.040Z,8.30
2023-03-07T04:56:13.972Z,9.33
2023-03-07T04:58:40.984Z,10.17
2023-03-07T05:01:08.013Z,10.27
2023-03-07T05:03:35.952Z,9.03
2023-03-07T05:06:10.382Z,9.17
2023-03-07T05:08:37.440Z,9.23
2023-03-07T05:11:04.272Z,9.03
2023-03-07T05:13:31.845Z,9.20
2023-03-07T05:15:59.524Z,8.83
2023-03-07T05:18:28.031Z,9.00
2023-03-07T05:20:56.877Z,9.60
2023-03-07T05:23:23.906Z,10.23
2023-03-07T05:25:51.704Z,8.87
2023-03-07T05:28:18.995Z,9.77
2023-03-07T05:30:46.780Z,8.63
2023-03-07T05:33:14.198Z,9.83
2023-03-07T05:35:42.019Z,9.93
2023-03-07T05:38:10.661Z,8.77
2023-03-07T05:40:37.461Z,9.83
2023-03-07T05:43:04.907Z,8.47
2023-03-07T05:45:32.162Z,8.33
2023-03-07T05:48:00.257Z,9.53
2023-03-07T05:50:27.173Z,9.33
2023-03-07T05:52:54.257Z,8.47
2023-03-07T05:55:23.852Z,9.27
2023-03-07T05:57:50.749Z,9.37
2023-03-07T06:00:18.168Z,8.20
2023-03-07T06:02:52.718Z,7.97
2023-03-07T06:05:19.591Z,8.80
2023-03-07T06:07:46.762Z,9.00
2023-03-07T06:10:14.866Z,9.13
2023-03-07T06:12:41.850Z,8.93
2023-03-07T06:15:09.000Z,9.33
2023-03-07T06:17:36.347Z,8.87
2023-03-07T06:20:04.194Z,8.87
2023-03-07T06:22:32.118Z,9.00
2023-03-07T06:24:59.103Z,8.70
2023-03-07T06:27:25.829Z,8.47
2023-03-07T06:29:52.802Z,8.27
2023-03-07T06:32:19.423Z,8.67
2023-03-07T06:34:46.118Z,8.10
2023-03-07T06:37:13.723Z,8.93
2023-03-07T06:39:40.547Z,7.70
2023-03-07T06:42:07.169Z,7.70
2023-03-07T06:44:34.929Z,8.27
2023-03-07T06:47:01.835Z,8.27
2023-03-07T06:49:28.426Z,8.03
2023-03-07T06:51:55.118Z,7.07
2023-03-07T06:54:21.781Z,8.27
2023-03-07T06:56:48.864Z,8.63
2023-03-07T06:59:19.804Z,7.60
2023-03-07T07:01:48.540Z,7.73
2023-03-07T07:04:15.785Z,7.90
2023-03-07T07:06:42.912Z,6.70
2023-03-07T07:09:12.570Z,8.40
2023-03-07T07:11:39.281Z,7.73
2023-03-07T07:14:09.924Z,7.10
2023-03-07T07:16:37.922Z,8.50
2023-03-07T07:19:05.333Z,7.47
2023-03-07T07:21:32.760Z,7.90
2023-03-07T07:23:59.404Z,6.33
2023-03-07T07:26:26.732Z,6.80
2023-03-07T07:28:53.636Z,7.73
2023-03-07T07:31:20.336Z,7.33
2023-03-07T07:33:47.101Z,6.87
2023-03-07T07:36:15.777Z,7.33
2023-03-07T07:38:42.791Z,6.60
2023-03-07T07:41:09.855Z,7.43
2023-03-07T07:43:36.581Z,7.53
2023-03-07T07:46:28.453Z,7.50
2023-03-07T07:48:55.763Z,7.30
2023-03-07T07:51:22.614Z,6.80
2023-03-07T07:53:49.272Z,6.80
2023-03-07T07:56:16.178Z,6.87
2023-03-07T07:58:42.849Z,7.07
2023-03-07T08:01:18.013Z,6.77
2023-03-07T08:03:44.876Z,7.40
2023-03-07T08:06:13.420Z,8.32
2023-03-07T08:08:40.247Z,6.30
2023-03-07T08:11:06.965Z,7.30
2023-03-07T08:13:33.660Z,6.83
2023-03-07T08:16:00.377Z,6.40
2023-03-07T08:18:26.986Z,6.87
2023-03-07T08:20:53.586Z,5.90
2023-03-07T08:23:20.168Z,7.33
2023-03-07T08:25:46.798Z,7.27
2023-03-07T08:28:13.421Z,7.00
2023-03-07T08:30:40.047Z,7.10
2023-03-07T08:33:07.311Z,6.53
2023-03-07T08:35:34.100Z,7.73
2023-03-07T08:38:01.167Z,6.50
2023-03-07T08:40:29.624Z,8.37
2023-03-07T08:42:56.308Z,6.23
2023-03-07T08:45:23.976Z,7.77
2023-03-07T08:47:55.400Z,7.23
2023-03-07T08:50:28.283Z,7.53
2023-03-07T08:52:54.960Z,12.43
2023-03-07T08:55:21.634Z,6.30
2023-03-07T08:57:48.447Z,6.83
2023-03-07T09:00:15.519Z,7.27
2023-03-07T09:02:42.422Z,10.27
2023-03-07T09:05:09.666Z,9.00
2023-03-07T09:07:36.336Z,7.37
2023-03-07T09:10:03.072Z,6.67
2023-03-07T09:12:30.245Z,8.77
2023-03-07T09:14:56.857Z,7.37
2023-03-07T09:17:23.513Z,6.47
2023-03-07T09:19:50.616Z,6.47
2023-03-07T09:22:17.750Z,7.50
2023-03-07T09:24:44.567Z,8.03
2023-03-07T09:27:11.476Z,8.13
2023-03-07T09:29:38.236Z,6.90
2023-03-07T09:32:05.261Z,6.87
2023-03-07T09:34:32.168Z,9.07
2023-03-07T09:36:58.912Z,6.07
2023-03-07T09:39:25.683Z,7.40
2023-03-07T09:42:05.713Z,6.17
2023-03-07T09:44:44.326Z,5.50
2023-03-07T09:48:11.083Z,7.77
2023-03-07T09:50:57.211Z,7.97
2023-03-07T09:53:41.144Z,6.43
2023-03-07T09:56:19.880Z,6.17
2023-03-07T09:58:51.706Z,7.00
2023-03-07T10:01:23.006Z,6.00
2023-03-07T10:04:01.159Z,5.60
2023-03-07T10:06:38.932Z,6.70
2023-03-07T10:09:18.578Z,5.80
2023-03-07T10:12:11.358Z,6.10
2023-03-07T10:15:08.812Z,5.50
2023-03-07T10:17:43.630Z,3.97
2023-03-07T10:20:24.109Z,8.20
2023-03-07T10:23:05.451Z,5.10
2023-03-07T10:25:40.735Z,5.27
2023-03-07T10:28:25.604Z,10.87
2023-03-07T10:30:58.092Z,5.63
2023-03-07T10:33:25.700Z,5.83
2023-03-07T10:36:20.207Z,6.37
2023-03-07T10:38:59.948Z,5.50
2023-03-07T10:41:27.159Z,6.80
2023-03-07T10:43:54.752Z,5.97
2023-03-07T10:46:27.504Z,5.27
2023-03-07T10:49:09.468Z,7.50
2023-03-07T10:51:50.543Z,7.50
2023-03-07T10:54:21.284Z,5.57
2023-03-07T10:57:05.523Z,5.37
2023-03-07T10:59:32.472Z,5.53
2023-03-07T11:02:01.302Z,5.97
2023-03-07T11:04:30.332Z,7.53
2023-03-07T11:07:00.503Z,6.23
2023-03-07T11:09:34.809Z,6.37
2023-03-07T11:12:04.644Z,5.23
2023-03-07T11:14:46.710Z,5.90
2023-03-07T11:17:25.158Z,5.80
2023-03-07T11:19:56.840Z,5.97
2023-03-07T11:22:27.517Z,5.20
2023-03-07T11:25:12.468Z,5.27
2023-03-07T11:27:54.388Z,5.80
2023-03-07T11:30:34.285Z,5.33
2023-03-07T11:33:15.520Z,5.47
2023-03-07T11:36:01.839Z,5.27
2023-03-07T11:38:55.106Z,5.20
2023-03-07T11:41:29.600Z,5.40
2023-03-07T11:44:25.835Z,5.03
2023-03-07T11:47:12.241Z,5.07
2023-03-07T11:49:45.388Z,4.60
2023-03-07T11:52:30.903Z,4.60
2023-03-07T11:55:20.880Z,5.23
2023-03-07T11:57:56.467Z,4.87
2023-03-07T12:00:32.448Z,4.30
2023-03-07T12:03:30.345Z,5.77
2023-03-07T12:06:11.107Z,5.13
2023-03-07T12:08:41.967Z,4.90
2023-03-07T12:11:27.158Z,4.73
2023-03-07T12:14:22.972Z,4.43
2023-03-07T12:17:10.563Z,4.57
2023-03-07T12:19:40.086Z,6.97
2023-03-07T12:22:22.049Z,5.23
2023-03-07T12:25:22.428Z,4.70
2023-03-07T12:28:15.878Z,5.57
2023-03-07T12:30:59.102Z,5.20
2023-03-07T12:33:39.558Z,4.80
2023-03-07T12:36:11.641Z,4.97
2023-03-07T12:39:13.416Z,4.60
2023-03-07T12:41:49.070Z,4.70
2023-03-07T12:44:42.951Z,5.17
2023-03-07T12:47:32.143Z,4.57
2023-03-07T12:50:14.938Z,4.93
2023-03-07T12:53:18.710Z,5.53
2023-03-07T12:55:55.757Z,4.47
2023-03-07T12:58:49.393Z,5.00
2023-03-07T13:01:23.213Z,4.60
2023-03-07T13:04:11.265Z,5.73
2023-03-07T13:06:39.801Z,4.77
2023-03-07T13:09:08.067Z,6.17
2023-03-07T13:11:34.866Z,5.93
2023-03-07T13:14:03.261Z,6.07
2023-03-07T13:16:44.781Z,6.53
2023-03-07T13:19:39.343Z,6.80
2023-03-07T13:22:14.732Z,6.37
2023-03-07T13:24:43.104Z,5.33
2023-03-07T13:27:18.469Z,5.40
2023-03-07T13:30:09.894Z,5.17
2023-03-07T13:32:51.694Z,5.40
2023-03-07T13:35:30.539Z,5.33
2023-03-07T13:38:15.498Z,5.50
2023-03-07T13:40:46.197Z,5.27
2023-03-07T13:43:19.242Z,5.00
2023-03-07T13:46:02.043Z,5.50
2023-03-07T13:48:31.030Z,5.30
2023-03-07T13:51:00.603Z,5.00
2023-03-07T13:53:39.445Z,4.97
2023-03-07T13:56:15.432Z,4.83
2023-03-07T13:59:06.869Z,5.20
2023-03-07T14:01:53.371Z,4.70
2023-03-07T14:04:41.099Z,5.00
2023-03-07T14:07:16.293Z,4.67
2023-03-07T14:09:49.830Z,5.50
2023-03-07T14:12:34.417Z,4.77
2023-03-07T14:15:22.490Z,5.17
2023-03-07T14:18:15.275Z,4.57
2023-03-07T14:20:59.627Z,4.70
2023-03-07T14:23:52.630Z,5.87
2023-03-07T14:26:36.874Z,5.80
2023-03-07T14:29:18.956Z,7.37
2023-03-07T14:31:46.838Z,10.37
2023-03-07T14:34:31.479Z,7.43
2023-03-07T14:37:16.841Z,6.63
2023-03-07T14:40:09.850Z,7.03
2023-03-07T14:42:47.997Z,9.07
2023-03-07T14:45:24.251Z,7.80
2023-03-07T14:48:06.235Z,6.90
2023-03-07T14:50:34.097Z,6.63
2023-03-07T14:53:23.376Z,5.40
2023-03-07T14:55:52.669Z,5.77
2023-03-07T14:58:29.277Z,5.23
2023-03-07T15:01:04.337Z,4.93
2023-03-07T15:03:32.110Z,5.10
2023-03-07T15:06:01.476Z,6.07
2023-03-07T15:08:35.195Z,4.40
2023-03-07T15:11:33.900Z,5.30
2023-03-07T15:14:08.624Z,6.60
2023-03-07T15:16:44.680Z,7.27
2023-03-07T15:19:19.232Z,5.33
2023-03-07T15:21:57.553Z,8.23
2023-03-07T15:24:36.496Z,5.63
2023-03-07T15:27:04.801Z,5.07
2023-03-07T15:29:33.119Z,6.70
2023-03-07T15:32:07.126Z,7.17
2023-03-07T15:34:37.291Z,6.43
2023-03-07T15:37:24.438Z,4.30
2023-03-07T15:40:09.240Z,5.00
2023-03-07T15:42:56.775Z,4.73
2023-03-07T15:45:38.543Z,5.50
2023-03-07T15:48:25.817Z,4.97
2023-03-07T15:51:06.302Z,5.60
2023-03-07T15:53:43.248Z,5.20
2023-03-07T15:56:37.494Z,5.23
2023-03-07T15:59:09.979Z,10.17
2023-03-07T16:01:36.659Z,6.67
2023-03-07T16:04:04.345Z,9.87
2023-03-07T16:06:38.670Z,6.77
2023-03-07T16:09:06.793Z,7.50
2023-03-07T16:11:33.729Z,6.97
2023-03-07T16:14:01.020Z,6.27
2023-03-07T16:16:30.082Z,5.97
2023-03-07T16:18:58.169Z,5.73
2023-03-07T16:21:26.266Z,7.40
2023-03-07T16:23:53.038Z,7.33
2023-03-07T16:26:22.575Z,8.23
2023-03-07T16:28:50.868Z,9.13
2023-03-07T16:31:18.762Z,6.90
2023-03-07T16:33:46.813Z,8.20
2023-03-07T16:36:14.938Z,7.50
2023-03-07T16:38:41.942Z,6.50
2023-03-07T16:41:21.088Z,6.90
2023-03-07T16:43:57.726Z,5.77
2023-03-07T16:46:26.002Z,6.70
2023-03-07T16:48:52.823Z,6.47
2023-03-07T16:51:21.833Z,5.67
2023-03-07T16:53:50.458Z,6.10
2023-03-07T16:56:27.346Z,5.50
2023-03-07T16:58:54.046Z,6.33
2023-03-07T17:01:20.693Z,6.70
2023-03-07T17:03:47.469Z,5.77
2023-03-07T17:06:16.484Z,5.87
2023-03-07T17:08:44.659Z,6.07
2023-03-07T17:11:20.828Z,6.07
2023-03-07T17:13:49.380Z,7.93
2023-03-07T17:16:17.015Z,6.53
2023-03-07T17:18:44.630Z,6.93
2023-03-07T17:21:16.843Z,6.80
2023-03-07T17:23:45.009Z,5.53
2023-03-07T17:26:19.061Z,6.33
2023-03-07T17:28:46.559Z,7.00
2023-03-07T17:31:13.457Z,6.53
2023-03-07T17:33:40.131Z,7.73
2023-03-07T17:36:12.265Z,6.33
2023-03-07T17:38:39.068Z,6.87
2023-03-07T17:41:05.701Z,7.97
2023-03-07T17:43:33.425Z,6.87
2023-03-07T17:46:00.742Z,6.73
2023-03-07T17:48:27.577Z,7.03
2023-03-07T17:50:54.296Z,7.00
2023-03-07T17:53:20.943Z,7.30
2023-03-07T17:55:47.668Z,6.77
2023-03-07T17:58:14.435Z,6.27
2023-03-07T18:00:41.072Z,5.90
2023-03-07T18:03:07.699Z,6.13
2023-03-07T18:05:34.333Z,6.10
2023-03-07T18:08:00.990Z,6.33
2023-03-07T18:10:28.312Z,5.47
2023-03-07T18:12:55.066Z,5.60
2023-03-07T18:15:22.836Z,6.23
2023-03-07T18:17:50.203Z,6.07
2023-03-07T18:20:19.217Z,6.40
2023-03-07T18:22:46.003Z,6.13
2023-03-07T18:25:15.756Z,5.90
2023-03-07T18:27:43.111Z,5.87
2023-03-07T18:30:11.781Z,5.73
2023-03-07T18:32:38.698Z,4.90
2023-03-07T18:35:06.332Z,6.03
2023-03-07T18:37:32.960Z,5.83
2023-03-07T18:39:59.761Z,6.20
2023-03-07T18:42:27.333Z,6.73
2023-03-07T18:44:54.484Z,5.63
2023-03-07T18:47:21.218Z,6.80
2023-03-07T18:49:53.898Z,7.67
2023-03-07T18:52:20.646Z,6.00
2023-03-07T18:54:48.574Z,5.37
2023-03-07T18:57:15.682Z,6.20
2023-03-07T18:59:42.515Z,5.40
2023-03-07T19:02:09.946Z,5.90
2023-03-07T19:04:36.660Z,5.87
2023-03-07T19:07:03.983Z,5.63
2023-03-07T19:09:31.597Z,5.80
2023-03-07T19:11:58.282Z,5.90
2023-03-07T19:14:26.300Z,6.20
2023-03-07T19:16:53.333Z,5.63
2023-03-07T19:19:20.155Z,5.67
2023-03-07T19:21:46.745Z,5.37
2023-03-07T19:24:14.731Z,5.73
2023-03-07T19:26:43.173Z,5.83
2023-03-07T19:29:12.934Z,5.40
2023-03-07T19:31:43.398Z,5.47
2023-03-07T19:34:10.302Z,5.57
2023-03-07T19:36:38.403Z,6.10
2023-03-07T19:39:05.654Z,5.47
2023-03-07T19:41:32.948Z,5.70
2023-03-07T19:44:00.567Z,5.73
2023-03-07T19:46:27.756Z,5.93
2023-03-07T19:48:54.476Z,6.00
2023-03-07T19:51:23.562Z,4.97
2023-03-07T19:53:51.081Z,6.40
2023-03-07T19:56:24.342Z,5.63
2023-03-07T19:58:51.216Z,5.93
2023-03-07T20:01:19.652Z,5.90
2023-03-07T20:03:47.381Z,5.47
2023-03-07T20:06:24.324Z,5.67
2023-03-07T20:08:52.662Z,5.60
2023-03-07T20:11:27.060Z,7.87
2023-03-07T20:13:55.891Z,6.73
2023-03-07T20:16:22.780Z,6.33
2023-03-07T20:18:50.867Z,6.40
2023-03-07T20:21:18.703Z,6.03
2023-03-07T20:23:47.019Z,5.33
2023-03-07T20:26:16.739Z,5.73
2023-03-07T20:28:43.720Z,8.00
2023-03-07T20:31:11.150Z,7.03
2023-03-07T20:33:39.732Z,7.67
2023-03-07T20:36:09.828Z,6.53
2023-03-07T20:38:37.328Z,6.73
2023-03-07T20:41:14.240Z,6.70
2023-03-07T20:43:40.904Z,6.27
2023-03-07T20:46:13.184Z,5.83
2023-03-07T20:48:41.125Z,6.57
2023-03-07T20:51:20.644Z,5.73
2023-03-07T20:53:49.257Z,6.33
2023-03-07T20:56:17.013Z,7.13
2023-03-07T20:58:43.902Z,6.47
2023-03-07T21:01:11.764Z,8.83
2023-03-07T21:03:38.579Z,6.93
2023-03-07T21:06:05.832Z,8.80
2023-03-07T21:08:35.479Z,7.43
2023-03-07T21:11:05.230Z,7.63
2023-03-07T21:13:34.849Z,6.50
2023-03-07T21:16:10.515Z,5.40
2023-03-07T21:18:37.938Z,8.27
2023-03-07T21:21:07.245Z,6.07
2023-03-07T21:23:34.423Z,6.20
2023-03-07T21:26:06.083Z,6.63
2023-03-07T21:28:34.176Z,5.63
2023-03-07T21:31:18.042Z,7.10
2023-03-07T21:33:47.281Z,8.20
2023-03-07T21:36:16.212Z,6.67
2023-03-07T21:38:44.754Z,6.13
2023-03-07T21:41:12.368Z,6.07
2023-03-07T21:43:39.127Z,5.60
2023-03-07T21:46:07.655Z,6.03
2023-03-07T21:48:34.597Z,5.00
2023-03-07T21:51:01.650Z,5.73
2023-03-07T21:53:29.046Z,6.23
2023-03-07T21:56:04.200Z,6.20
2023-03-07T21:58:31.636Z,5.83
2023-03-07T22:00:58.849Z,6.23
2023-03-07T22:03:27.305Z,11.17
2023-03-07T22:05:56.882Z,6.23
2023-03-07T22:08:24.090Z,7.63
2023-03-07T22:11:00.157Z,6.47
2023-03-07T22:13:27.971Z,6.30
2023-03-07T22:15:59.481Z,6.80
2023-03-07T22:18:26.708Z,5.70
2023-03-07T22:20:55.070Z,5.80
2023-03-07T22:23:23.043Z,5.40
2023-03-07T22:25:49.736Z,5.90
2023-03-07T22:28:19.190Z,5.30
2023-03-07T22:30:47.241Z,5.60
2023-03-07T22:33:13.960Z,5.33
2023-03-07T22:35:40.653Z,5.47
2023-03-07T22:38:27.499Z,5.70
2023-03-07T22:40:54.421Z,6.00
2023-03-07T22:43:21.088Z,5.83
2023-03-07T22:45:51.881Z,5.30
2023-03-07T22:48:18.959Z,5.33
2023-03-07T22:50:45.561Z,5.93
2023-03-07T22:53:12.328Z,5.47
2023-03-07T22:55:43.428Z,5.77
2023-03-07T22:58:11.230Z,4.70
2023-03-07T23:00:40.858Z,5.13
2023-03-07T23:03:07.561Z,4.80
2023-03-07T23:05:34.775Z,4.90
2023-03-07T23:08:02.414Z,5.33
2023-03-07T23:10:29.934Z,5.70
2023-03-07T23:12:56.604Z,5.20
2023-03-07T23:15:24.514Z,5.43
2023-03-07T23:17:51.703Z,6.50
2023-03-07T23:20:25.328Z,6.13
2023-03-07T23:22:52.896Z,5.60
2023-03-07T23:25:20.137Z,5.23
2023-03-07T23:27:46.783Z,5.67
2023-03-07T23:30:13.723Z,5.53
2023-03-07T23:32:40.367Z,5.53
2023-03-07T23:35:07.396Z,6.07
2023-03-07T23:37:34.125Z,5.03
2023-03-07T23:40:01.497Z,5.20
2023-03-07T23:42:28.269Z,6.23
2023-03-07T23:44:55.014Z,5.43
2023-03-07T23:47:21.606Z,4.83
2023-03-07T23:49:48.120Z,6.30
2023-03-07T23:52:14.698Z,6.07
2023-03-07T23:54:44.612Z,6.70
2023-03-07T23:57:11.232Z,6.57
2023-03-07T23:59:37.769Z,6.83
